Clarkia, Idaho
Current Conditions -  °F | °C
As of 1:53 AM on Tuesday 27 Jan 2015 (Local Time) from KMLP Reporting Station
Clear Clear  
Wind Chill: 41°   Ceiling: Unl
Heat Index: 45°   Visibility: 10mi
Dew Point: 22°   Wind: 8mph
Humidity: 40%   Direction: 210°SSW
Pressure: 30.05"   Gusts: NA
Location:  47.01°N, 116.25°W
Report Text: KMLP 270953Z AUTO 21007KT 10SM CLR 07/M06 A3005 RMK AO2 SLP109 T00721056
Loading
Personal Weather Stations






























Interactive Weather Map New forecast layout! Learn more

10-Day Weather Forecast

Advertisements
Track Severe Weather on mobile